sensor_id;sensor_type;location;lat;lon;timestamp;pressure;altitude;pressure_sealevel;temperature;humidity
73518;BME280;61766;60.318;25.044;2023-07-29T00:00:42;99756.90;;;17.94;42.48
73518;BME280;61766;60.318;25.044;2023-07-29T00:03:07;99754.69;;;17.90;42.59
73518;BME280;61766;60.318;25.044;2023-07-29T00:05:33;99755.28;;;18.02;42.86
73518;BME280;61766;60.318;25.044;2023-07-29T00:07:58;99759.55;;;17.87;42.60
73518;BME280;61766;60.318;25.044;2023-07-29T00:10:24;99763.49;;;17.24;43.73
73518;BME280;61766;60.318;25.044;2023-07-29T00:12:50;99768.71;;;17.20;43.82
73518;BME280;61766;60.318;25.044;2023-07-29T00:15:16;99766.81;;;17.77;43.67
73518;BME280;61766;60.318;25.044;2023-07-29T00:17:42;99765.87;;;17.41;43.62
73518;BME280;61766;60.318;25.044;2023-07-29T00:20:08;99760.57;;;17.44;43.79
73518;BME280;61766;60.318;25.044;2023-07-29T00:22:33;99758.39;;;17.84;43.14
73518;BME280;61766;60.318;25.044;2023-07-29T00:24:58;99757.92;;;17.61;43.58
73518;BME280;61766;60.318;25.044;2023-07-29T00:27:24;99752.85;;;17.69;42.81
73518;BME280;61766;60.318;25.044;2023-07-29T00:29:50;99753.05;;;18.09;42.34
73518;BME280;61766;60.318;25.044;2023-07-29T00:32:16;99747.94;;;17.23;43.78
73518;BME280;61766;60.318;25.044;2023-07-29T00:34:41;99749.20;;;16.77;45.20
73518;BME280;61766;60.318;25.044;2023-07-29T00:37:07;99747.49;;;16.79;45.89
73518;BME280;61766;60.318;25.044;2023-07-29T00:39:33;99742.28;;;16.93;45.67
73518;BME280;61766;60.318;25.044;2023-07-29T00:41:59;99736.43;;;16.85;45.67
73518;BME280;61766;60.318;25.044;2023-07-29T00:44:24;99737.12;;;16.94;45.38
73518;BME280;61766;60.318;25.044;2023-07-29T00:46:52;99739.18;;;17.14;44.90
73518;BME280;61766;60.318;25.044;2023-07-29T00:49:16;99739.60;;;17.33;44.70
73518;BME280;61766;60.318;25.044;2023-07-29T00:51:42;99738.86;;;17.13;45.10
73518;BME280;61766;60.318;25.044;2023-07-29T00:54:08;99737.29;;;17.24;45.00
73518;BME280;61766;60.318;25.044;2023-07-29T00:56:33;99734.85;;;17.28;44.43
73518;BME280;61766;60.318;25.044;2023-07-29T00:58:59;99732.75;;;17.30;44.05
73518;BME280;61766;60.318;25.044;2023-07-29T01:01:25;99732.29;;;17.88;43.11
73518;BME280;61766;60.318;25.044;2023-07-29T01:03:51;99734.10;;;17.85;42.34
73518;BME280;61766;60.318;25.044;2023-07-29T01:06:21;99734.88;;;17.48;43.93
73518;BME280;61766;60.318;25.044;2023-07-29T01:08:51;99732.67;;;17.67;43.51
73518;BME280;61766;60.318;25.044;2023-07-29T01:11:19;99731.10;;;17.92;42.11
73518;BME280;61766;60.318;25.044;2023-07-29T01:13:37;99725.96;;;17.97;42.28
73518;BME280;61766;60.318;25.044;2023-07-29T01:16:05;99726.58;;;17.97;42.21
73518;BME280;61766;60.318;25.044;2023-07-29T01:18:28;99726.42;;;17.50;42.70
73518;BME280;61766;60.318;25.044;2023-07-29T01:20:57;99725.64;;;17.77;42.80
73518;BME280;61766;60.318;25.044;2023-07-29T01:23:23;99725.74;;;17.78;42.77
73518;BME280;61766;60.318;25.044;2023-07-29T01:25:43;99728.36;;;17.85;43.21
73518;BME280;61766;60.318;25.044;2023-07-29T01:28:09;99732.99;;;17.76;42.06
73518;BME280;61766;60.318;25.044;2023-07-29T01:30:39;99736.27;;;17.63;41.56
73518;BME280;61766;60.318;25.044;2023-07-29T01:33:05;99736.52;;;17.96;40.97
73518;BME280;61766;60.318;25.044;2023-07-29T01:35:31;99735.19;;;18.03;40.56
73518;BME280;61766;60.318;25.044;2023-07-29T01:37:57;99730.92;;;17.63;40.51
73518;BME280;61766;60.318;25.044;2023-07-29T01:40:19;99728.83;;;17.83;40.45
73518;BME280;61766;60.318;25.044;2023-07-29T01:42:44;99734.74;;;17.57;40.24
73518;BME280;61766;60.318;25.044;2023-07-29T01:45:10;99739.74;;;17.65;41.07
73518;BME280;61766;60.318;25.044;2023-07-29T01:47:36;99736.68;;;17.86;40.50
73518;BME280;61766;60.318;25.044;2023-07-29T01:50:01;99734.29;;;17.46;40.45
73518;BME280;61766;60.318;25.044;2023-07-29T01:52:27;99733.85;;;17.46;40.62
73518;BME280;61766;60.318;25.044;2023-07-29T01:54:53;99730.52;;;17.70;41.47
73518;BME280;61766;60.318;25.044;2023-07-29T01:57:18;99725.96;;;17.68;41.93
73518;BME280;61766;60.318;25.044;2023-07-29T01:59:44;99724.33;;;17.60;41.13
73518;BME280;61766;60.318;25.044;2023-07-29T02:02:10;99724.19;;;17.65;41.13
73518;BME280;61766;60.318;25.044;2023-07-29T02:04:36;99726.51;;;17.43;40.97
73518;BME280;61766;60.318;25.044;2023-07-29T02:07:02;99724.58;;;17.71;40.41
73518;BME280;61766;60.318;25.044;2023-07-29T02:09:28;99724.52;;;17.43;40.76
73518;BME280;61766;60.318;25.044;2023-07-29T02:11:53;99722.10;;;17.40;40.99
73518;BME280;61766;60.318;25.044;2023-07-29T02:14:19;99719.98;;;17.68;41.32
73518;BME280;61766;60.318;25.044;2023-07-29T02:16:45;99717.73;;;17.63;41.09
73518;BME280;61766;60.318;25.044;2023-07-29T02:19:11;99720.23;;;17.46;41.05
73518;BME280;61766;60.318;25.044;2023-07-29T02:21:37;99719.69;;;17.73;41.00
73518;BME280;61766;60.318;25.044;2023-07-29T02:24:03;99722.35;;;17.37;42.05
73518;BME280;61766;60.318;25.044;2023-07-29T02:26:28;99725.44;;;17.75;42.37
73518;BME280;61766;60.318;25.044;2023-07-29T02:28:54;99730.85;;;16.89;44.79
73518;BME280;61766;60.318;25.044;2023-07-29T02:31:23;99733.26;;;17.00;44.30
73518;BME280;61766;60.318;25.044;2023-07-29T02:33:46;99731.62;;;17.35;43.91
73518;BME280;61766;60.318;25.044;2023-07-29T02:36:12;99731.71;;;16.29;46.74
73518;BME280;61766;60.318;25.044;2023-07-29T02:38:37;99729.37;;;16.98;45.10
73518;BME280;61766;60.318;25.044;2023-07-29T02:41:03;99729.71;;;17.27;45.32
73518;BME280;61766;60.318;25.044;2023-07-29T02:43:29;99730.30;;;16.56;46.98
73518;BME280;61766;60.318;25.044;2023-07-29T02:45:55;99730.33;;;16.50;47.81
73518;BME280;61766;60.318;25.044;2023-07-29T02:48:20;99729.75;;;17.07;46.42
73518;BME280;61766;60.318;25.044;2023-07-29T02:50:46;99731.14;;;16.89;45.95
73518;BME280;61766;60.318;25.044;2023-07-29T02:53:12;99727.43;;;16.89;46.15
73518;BME280;61766;60.318;25.044;2023-07-29T02:55:39;99722.41;;;17.10;45.22
73518;BME280;61766;60.318;25.044;2023-07-29T02:58:04;99722.27;;;16.87;45.39
73518;BME280;61766;60.318;25.044;2023-07-29T03:00:31;99726.76;;;17.36;45.63
73518;BME280;61766;60.318;25.044;2023-07-29T03:02:55;99728.02;;;17.05;45.37
73518;BME280;61766;60.318;25.044;2023-07-29T03:05:21;99729.19;;;16.79;46.95
73518;BME280;61766;60.318;25.044;2023-07-29T03:07:47;99727.02;;;16.74;47.39
73518;BME280;61766;60.318;25.044;2023-07-29T03:10:13;99723.05;;;16.98;47.45
73518;BME280;61766;60.318;25.044;2023-07-29T03:12:39;99722.67;;;16.64;48.37
73518;BME280;61766;60.318;25.044;2023-07-29T03:15:05;99722.63;;;16.36;49.16
73518;BME280;61766;60.318;25.044;2023-07-29T03:17:30;99725.17;;;16.30;49.89
73518;BME280;61766;60.318;25.044;2023-07-29T03:19:56;99727.26;;;15.97;50.27
73518;BME280;61766;60.318;25.044;2023-07-29T03:22:22;99725.44;;;16.35;50.09
73518;BME280;61766;60.318;25.044;2023-07-29T03:24:48;99725.03;;;16.38;50.20
73518;BME280;61766;60.318;25.044;2023-07-29T03:27:14;99726.43;;;16.13;51.03
73518;BME280;61766;60.318;25.044;2023-07-29T03:29:39;99725.12;;;15.93;50.93
73518;BME280;61766;60.318;25.044;2023-07-29T03:32:06;99721.66;;;16.62;50.25
73518;BME280;61766;60.318;25.044;2023-07-29T03:34:31;99719.72;;;16.43;50.40
73518;BME280;61766;60.318;25.044;2023-07-29T03:36:57;99720.15;;;16.42;50.61
73518;BME280;61766;60.318;25.044;2023-07-29T03:39:23;99720.66;;;16.35;50.71
73518;BME280;61766;60.318;25.044;2023-07-29T03:41:49;99720.71;;;16.05;51.53
73518;BME280;61766;60.318;25.044;2023-07-29T03:44:14;99726.33;;;16.03;51.79
73518;BME280;61766;60.318;25.044;2023-07-29T03:46:40;99734.69;;;15.32;53.40
73518;BME280;61766;60.318;25.044;2023-07-29T03:49:06;99737.55;;;15.89;52.41
73518;BME280;61766;60.318;25.044;2023-07-29T03:51:32;99738.22;;;16.40;51.35
73518;BME280;61766;60.318;25.044;2023-07-29T03:53:57;99736.30;;;16.26;51.14
73518;BME280;61766;60.318;25.044;2023-07-29T03:56:23;99741.29;;;16.77;50.90
73518;BME280;61766;60.318;25.044;2023-07-29T03:58:49;99743.72;;;16.85;50.63
73518;BME280;61766;60.318;25.044;2023-07-29T04:01:15;99744.77;;;16.52;51.12
73518;BME280;61766;60.318;25.044;2023-07-29T04:03:41;99747.49;;;16.58;51.64
73518;BME280;61766;60.318;25.044;2023-07-29T04:06:07;99743.31;;;16.17;52.75
73518;BME280;61766;60.318;25.044;2023-07-29T04:08:32;99744.01;;;16.95;50.51
73518;BME280;61766;60.318;25.044;2023-07-29T04:10:58;99743.81;;;17.34;50.25
73518;BME280;61766;60.318;25.044;2023-07-29T04:13:24;99745.23;;;16.54;51.73
73518;BME280;61766;60.318;25.044;2023-07-29T04:15:50;99738.85;;;16.37;51.94
73518;BME280;61766;60.318;25.044;2023-07-29T04:18:16;99734.90;;;17.10;50.75
73518;BME280;61766;60.318;25.044;2023-07-29T04:20:41;99736.51;;;16.59;52.34
73518;BME280;61766;60.318;25.044;2023-07-29T04:23:07;99733.12;;;16.81;51.53
73518;BME280;61766;60.318;25.044;2023-07-29T04:25:33;99731.40;;;17.23;51.64
73518;BME280;61766;60.318;25.044;2023-07-29T04:27:59;99731.69;;;16.92;52.00
73518;BME280;61766;60.318;25.044;2023-07-29T04:30:25;99734.33;;;17.56;50.58
73518;BME280;61766;60.318;25.044;2023-07-29T04:32:51;99731.28;;;17.25;50.57
73518;BME280;61766;60.318;25.044;2023-07-29T04:35:16;99731.74;;;16.48;52.63
73518;BME280;61766;60.318;25.044;2023-07-29T04:37:42;99733.25;;;16.98;52.45
73518;BME280;61766;60.318;25.044;2023-07-29T04:40:09;99732.16;;;16.93;52.96
73518;BME280;61766;60.318;25.044;2023-07-29T04:42:34;99732.60;;;16.71;53.07
73518;BME280;61766;60.318;25.044;2023-07-29T04:44:59;99730.06;;;17.19;51.40
73518;BME280;61766;60.318;25.044;2023-07-29T04:47:25;99731.03;;;17.27;50.47
73518;BME280;61766;60.318;25.044;2023-07-29T04:49:51;99731.78;;;17.04;52.45
73518;BME280;61766;60.318;25.044;2023-07-29T04:52:17;99733.00;;;16.63;52.92
73518;BME280;61766;60.318;25.044;2023-07-29T04:54:43;99730.06;;;16.90;53.10
73518;BME280;61766;60.318;25.044;2023-07-29T04:57:08;99728.33;;;17.12;51.79
73518;BME280;61766;60.318;25.044;2023-07-29T04:59:34;99727.94;;;17.12;51.19
73518;BME280;61766;60.318;25.044;2023-07-29T05:02:00;99732.58;;;17.39;51.50
73518;BME280;61766;60.318;25.044;2023-07-29T05:04:26;99727.17;;;17.87;50.37
73518;BME280;61766;60.318;25.044;2023-07-29T05:06:52;99724.85;;;18.03;50.75
73518;BME280;61766;60.318;25.044;2023-07-29T05:09:18;99727.69;;;17.65;49.77
73518;BME280;61766;60.318;25.044;2023-07-29T05:11:43;99730.87;;;17.27;50.95
73518;BME280;61766;60.318;25.044;2023-07-29T05:14:09;99728.40;;;17.50;51.97
73518;BME280;61766;60.318;25.044;2023-07-29T05:16:35;99724.94;;;16.99;51.46
73518;BME280;61766;60.318;25.044;2023-07-29T05:19:00;99726.31;;;17.33;51.01
73518;BME280;61766;60.318;25.044;2023-07-29T05:21:26;99725.22;;;17.91;50.21
73518;BME280;61766;60.318;25.044;2023-07-29T05:23:52;99725.52;;;18.19;49.00
73518;BME280;61766;60.318;25.044;2023-07-29T05:26:18;99725.35;;;18.01;48.03
73518;BME280;61766;60.318;25.044;2023-07-29T05:28:43;99726.91;;;19.10;46.73
73518;BME280;61766;60.318;25.044;2023-07-29T05:31:09;99724.49;;;19.02;47.16
73518;BME280;61766;60.318;25.044;2023-07-29T05:33:35;99730.66;;;18.41;46.97
73518;BME280;61766;60.318;25.044;2023-07-29T05:36:00;99726.89;;;17.77;48.75
73518;BME280;61766;60.318;25.044;2023-07-29T05:38:26;99723.59;;;18.62;48.01
73518;BME280;61766;60.318;25.044;2023-07-29T05:40:52;99717.73;;;18.37;47.51
73518;BME280;61766;60.318;25.044;2023-07-29T05:43:18;99718.69;;;18.07;47.84
73518;BME280;61766;60.318;25.044;2023-07-29T05:45:43;99716.35;;;18.25;47.72
73518;BME280;61766;60.318;25.044;2023-07-29T05:48:09;99714.30;;;18.37;47.76
73518;BME280;61766;60.318;25.044;2023-07-29T05:50:35;99716.31;;;18.53;46.68
73518;BME280;61766;60.318;25.044;2023-07-29T05:53:01;99715.75;;;19.01;46.34
73518;BME280;61766;60.318;25.044;2023-07-29T05:55:27;99715.44;;;18.87;45.54
73518;BME280;61766;60.318;25.044;2023-07-29T05:57:52;99714.10;;;19.19;45.10
73518;BME280;61766;60.318;25.044;2023-07-29T06:00:18;99708.74;;;19.32;44.45
73518;BME280;61766;60.318;25.044;2023-07-29T06:02:44;99717.44;;;18.81;44.84
73518;BME280;61766;60.318;25.044;2023-07-29T06:05:10;99716.15;;;18.79;45.63
73518;BME280;61766;60.318;25.044;2023-07-29T06:07:35;99712.60;;;18.05;46.16
73518;BME280;61766;60.318;25.044;2023-07-29T06:10:01;99717.68;;;18.06;45.91
73518;BME280;61766;60.318;25.044;2023-07-29T06:12:27;99719.33;;;18.06;46.12
73518;BME280;61766;60.318;25.044;2023-07-29T06:14:52;99718.85;;;18.59;44.37
73518;BME280;61766;60.318;25.044;2023-07-29T06:17:18;99728.45;;;18.32;44.44
73518;BME280;61766;60.318;25.044;2023-07-29T06:19:44;99725.43;;;18.22;44.96
73518;BME280;61766;60.318;25.044;2023-07-29T06:22:10;99729.49;;;18.33;45.07
73518;BME280;61766;60.318;25.044;2023-07-29T06:24:35;99722.89;;;18.17;45.67
73518;BME280;61766;60.318;25.044;2023-07-29T06:27:02;99721.75;;;18.57;44.54
73518;BME280;61766;60.318;25.044;2023-07-29T06:29:27;99721.78;;;18.54;45.28
73518;BME280;61766;60.318;25.044;2023-07-29T06:31:53;99723.43;;;18.47;44.95
73518;BME280;61766;60.318;25.044;2023-07-29T06:34:19;99718.97;;;18.83;43.74
73518;BME280;61766;60.318;25.044;2023-07-29T06:36:44;99718.58;;;19.12;43.15
73518;BME280;61766;60.318;25.044;2023-07-29T06:39:10;99719.50;;;19.09;42.74
73518;BME280;61766;60.318;25.044;2023-07-29T06:41:36;99721.75;;;18.86;41.60
73518;BME280;61766;60.318;25.044;2023-07-29T06:44:01;99716.31;;;19.51;41.45
73518;BME280;61766;60.318;25.044;2023-07-29T06:46:27;99712.89;;;19.36;40.06
73518;BME280;61766;60.318;25.044;2023-07-29T06:48:53;99716.56;;;19.33;40.41
73518;BME280;61766;60.318;25.044;2023-07-29T06:51:19;99723.51;;;18.67;40.88
73518;BME280;61766;60.318;25.044;2023-07-29T06:53:45;99719.58;;;19.71;40.21
73518;BME280;61766;60.318;25.044;2023-07-29T06:56:10;99718.02;;;19.29;40.51
73518;BME280;61766;60.318;25.044;2023-07-29T06:58:36;99729.84;;;20.50;39.17
73518;BME280;61766;60.318;25.044;2023-07-29T07:01:02;99721.60;;;20.54;37.85
73518;BME280;61766;60.318;25.044;2023-07-29T07:03:27;99722.02;;;20.67;37.82
73518;BME280;61766;60.318;25.044;2023-07-29T07:05:53;99717.05;;;21.32;37.65
73518;BME280;61766;60.318;25.044;2023-07-29T07:08:19;99719.43;;;21.35;36.60
73518;BME280;61766;60.318;25.044;2023-07-29T07:10:46;99715.90;;;21.48;36.39
73518;BME280;61766;60.318;25.044;2023-07-29T07:13:10;99715.94;;;21.57;35.85
73518;BME280;61766;60.318;25.044;2023-07-29T07:15:36;99719.36;;;20.77;36.87
73518;BME280;61766;60.318;25.044;2023-07-29T07:18:02;99722.98;;;20.56;36.82
73518;BME280;61766;60.318;25.044;2023-07-29T07:20:27;99725.33;;;20.31;37.32
73518;BME280;61766;60.318;25.044;2023-07-29T07:22:53;99728.04;;;20.40;37.28
73518;BME280;61766;60.318;25.044;2023-07-29T07:25:19;99726.01;;;20.40;37.42
73518;BME280;61766;60.318;25.044;2023-07-29T07:27:44;99728.79;;;20.50;38.18
73518;BME280;61766;60.318;25.044;2023-07-29T07:30:11;99725.04;;;20.32;39.11
73518;BME280;61766;60.318;25.044;2023-07-29T07:32:36;99727.26;;;20.01;38.25
73518;BME280;61766;60.318;25.044;2023-07-29T07:35:02;99719.61;;;20.11;38.62
73518;BME280;61766;60.318;25.044;2023-07-29T07:37:27;99721.15;;;19.15;40.01
73518;BME280;61766;60.318;25.044;2023-07-29T07:39:53;99718.00;;;19.92;39.23
73518;BME280;61766;60.318;25.044;2023-07-29T07:42:19;99716.36;;;20.52;38.13
73518;BME280;61766;60.318;25.044;2023-07-29T07:44:44;99714.48;;;20.37;37.46
73518;BME280;61766;60.318;25.044;2023-07-29T07:47:10;99714.54;;;19.89;38.20
73518;BME280;61766;60.318;25.044;2023-07-29T07:49:36;99717.48;;;19.86;38.46
73518;BME280;61766;60.318;25.044;2023-07-29T07:52:02;99712.10;;;20.36;38.40
73518;BME280;61766;60.318;25.044;2023-07-29T07:54:27;99715.80;;;20.66;37.60
73518;BME280;61766;60.318;25.044;2023-07-29T07:56:53;99715.99;;;20.12;37.89
73518;BME280;61766;60.318;25.044;2023-07-29T07:59:19;99712.92;;;20.35;38.44
73518;BME280;61766;60.318;25.044;2023-07-29T08:01:45;99706.98;;;21.90;36.66
73518;BME280;61766;60.318;25.044;2023-07-29T08:04:10;99711.57;;;21.09;37.42
73518;BME280;61766;60.318;25.044;2023-07-29T08:06:36;99702.24;;;21.24;36.57
73518;BME280;61766;60.318;25.044;2023-07-29T08:09:02;99706.97;;;21.11;36.86
73518;BME280;61766;60.318;25.044;2023-07-29T08:11:29;99702.74;;;21.32;37.27
73518;BME280;61766;60.318;25.044;2023-07-29T08:13:53;99708.84;;;20.03;38.81
73518;BME280;61766;60.318;25.044;2023-07-29T08:16:19;99706.47;;;20.80;38.91
73518;BME280;61766;60.318;25.044;2023-07-29T08:18:45;99704.34;;;20.42;38.38
73518;BME280;61766;60.318;25.044;2023-07-29T08:21:10;99705.88;;;20.60;38.81
73518;BME280;61766;60.318;25.044;2023-07-29T08:23:37;99700.52;;;20.90;38.00
73518;BME280;61766;60.318;25.044;2023-07-29T08:26:03;99697.75;;;21.32;37.66
73518;BME280;61766;60.318;25.044;2023-07-29T08:28:27;99695.43;;;21.07;36.99
73518;BME280;61766;60.318;25.044;2023-07-29T08:30:53;99696.47;;;20.92;37.42
73518;BME280;61766;60.318;25.044;2023-07-29T08:33:19;99699.20;;;21.85;37.00
73518;BME280;61766;60.318;25.044;2023-07-29T08:35:44;99695.38;;;21.73;35.33
73518;BME280;61766;60.318;25.044;2023-07-29T08:38:10;99697.07;;;21.32;36.65
73518;BME280;61766;60.318;25.044;2023-07-29T08:40:38;99699.20;;;20.85;36.71
73518;BME280;61766;60.318;25.044;2023-07-29T08:43:07;99694.55;;;21.67;35.96
73518;BME280;61766;60.318;25.044;2023-07-29T08:45:27;99699.57;;;21.32;35.63
73518;BME280;61766;60.318;25.044;2023-07-29T08:47:54;99698.38;;;21.43;36.21
73518;BME280;61766;60.318;25.044;2023-07-29T08:50:19;99697.74;;;21.18;36.12
73518;BME280;61766;60.318;25.044;2023-07-29T08:52:45;99687.58;;;21.22;35.16
73518;BME280;61766;60.318;25.044;2023-07-29T08:55:11;99682.12;;;21.91;34.67
73518;BME280;61766;60.318;25.044;2023-07-29T08:57:36;99679.96;;;22.38;35.41
73518;BME280;61766;60.318;25.044;2023-07-29T09:00:02;99683.54;;;22.46;33.98
73518;BME280;61766;60.318;25.044;2023-07-29T09:02:27;99686.52;;;21.82;35.17
73518;BME280;61766;60.318;25.044;2023-07-29T09:04:53;99681.49;;;22.16;35.59
73518;BME280;61766;60.318;25.044;2023-07-29T09:07:19;99691.64;;;20.34;38.55
73518;BME280;61766;60.318;25.044;2023-07-29T09:09:44;99684.44;;;21.02;37.75
73518;BME280;61766;60.318;25.044;2023-07-29T09:12:10;99682.59;;;21.62;35.88
73518;BME280;61766;60.318;25.044;2023-07-29T09:14:36;99685.35;;;21.29;36.24
73518;BME280;61766;60.318;25.044;2023-07-29T09:17:02;99690.66;;;21.05;36.50
73518;BME280;61766;60.318;25.044;2023-07-29T09:19:28;99699.61;;;20.24;38.79
73518;BME280;61766;60.318;25.044;2023-07-29T09:21:53;99697.05;;;20.50;39.15
73518;BME280;61766;60.318;25.044;2023-07-29T09:24:20;99700.80;;;19.94;40.48
73518;BME280;61766;60.318;25.044;2023-07-29T09:26:49;99702.24;;;20.67;39.75
73518;BME280;61766;60.318;25.044;2023-07-29T09:29:10;99689.98;;;20.69;40.07
73518;BME280;61766;60.318;25.044;2023-07-29T09:31:36;99692.81;;;19.53;42.07
73518;BME280;61766;60.318;25.044;2023-07-29T09:34:03;99688.34;;;19.65;42.47
73518;BME280;61766;60.318;25.044;2023-07-29T09:36:30;99691.30;;;19.97;41.84
73518;BME280;61766;60.318;25.044;2023-07-29T09:38:56;99696.41;;;19.79;41.35
73518;BME280;61766;60.318;25.044;2023-07-29T09:41:19;99707.54;;;19.51;42.34
73518;BME280;61766;60.318;25.044;2023-07-29T09:43:44;99695.21;;;18.92;43.19
73518;BME280;61766;60.318;25.044;2023-07-29T09:46:10;99695.07;;;19.43;42.36
73518;BME280;61766;60.318;25.044;2023-07-29T09:48:36;99691.37;;;19.66;42.45
73518;BME280;61766;60.318;25.044;2023-07-29T09:53:27;99692.52;;;19.94;42.79
73518;BME280;61766;60.318;25.044;2023-07-29T09:55:53;99709.90;;;19.49;43.69
73518;BME280;61766;60.318;25.044;2023-07-29T09:58:26;99703.29;;;19.23;43.59
73518;BME280;61766;60.318;25.044;2023-07-29T10:00:44;99704.01;;;19.21;42.89
73518;BME280;61766;60.318;25.044;2023-07-29T10:03:10;99701.22;;;19.49;42.37
73518;BME280;61766;60.318;25.044;2023-07-29T10:05:36;99701.37;;;19.49;42.10
73518;BME280;61766;60.318;25.044;2023-07-29T10:08:02;99704.69;;;19.10;42.11
73518;BME280;61766;60.318;25.044;2023-07-29T10:10:27;99705.14;;;18.64;42.05
73518;BME280;61766;60.318;25.044;2023-07-29T10:12:54;99705.64;;;19.21;42.20
73518;BME280;61766;60.318;25.044;2023-07-29T10:15:19;99714.16;;;18.68;42.98
73518;BME280;61766;60.318;25.044;2023-07-29T10:17:44;99714.06;;;18.61;43.78
73518;BME280;61766;60.318;25.044;2023-07-29T10:20:11;99710.80;;;19.16;42.59
73518;BME280;61766;60.318;25.044;2023-07-29T10:22:37;99716.89;;;18.76;43.37
73518;BME280;61766;60.318;25.044;2023-07-29T10:25:07;99701.28;;;19.10;43.62
73518;BME280;61766;60.318;25.044;2023-07-29T10:27:28;99700.32;;;19.31;43.68
73518;BME280;61766;60.318;25.044;2023-07-29T10:29:54;99706.64;;;19.45;44.48
73518;BME280;61766;60.318;25.044;2023-07-29T10:32:19;99708.76;;;19.09;44.41
73518;BME280;61766;60.318;25.044;2023-07-29T10:34:45;99716.81;;;19.03;44.23
73518;BME280;61766;60.318;25.044;2023-07-29T10:37:10;99717.56;;;18.85;45.47
73518;BME280;61766;60.318;25.044;2023-07-29T10:39:45;99711.41;;;18.85;47.08
73518;BME280;61766;60.318;25.044;2023-07-29T10:42:03;99711.79;;;18.77;47.63
73518;BME280;61766;60.318;25.044;2023-07-29T10:46:53;99718.43;;;18.52;49.81
73518;BME280;61766;60.318;25.044;2023-07-29T10:49:23;99717.27;;;18.17;50.65
73518;BME280;61766;60.318;25.044;2023-07-29T10:51:44;99718.47;;;18.41;50.42
73518;BME280;61766;60.318;25.044;2023-07-29T10:54:14;99712.40;;;18.56;50.02
73518;BME280;61766;60.318;25.044;2023-07-29T10:56:37;99711.18;;;17.94;51.17
73518;BME280;61766;60.318;25.044;2023-07-29T11:01:30;99714.25;;;17.60;54.26
73518;BME280;61766;60.318;25.044;2023-07-29T11:06:19;99719.53;;;18.14;52.60
73518;BME280;61766;60.318;25.044;2023-07-29T11:08:44;99723.48;;;18.72;52.17
73518;BME280;61766;60.318;25.044;2023-07-29T11:11:11;99733.25;;;18.70;51.67
73518;BME280;61766;60.318;25.044;2023-07-29T11:13:37;99733.65;;;18.87;52.63
73518;BME280;61766;60.318;25.044;2023-07-29T11:16:02;99742.08;;;19.29;51.60
73518;BME280;61766;60.318;25.044;2023-07-29T11:18:30;99742.94;;;19.72;50.42
73518;BME280;61766;60.318;25.044;2023-07-29T11:20:53;99747.00;;;20.16;49.52
73518;BME280;61766;60.318;25.044;2023-07-29T11:23:19;99735.96;;;20.60;49.13
73518;BME280;61766;60.318;25.044;2023-07-29T11:25:45;99753.46;;;21.08;47.74
73518;BME280;61766;60.318;25.044;2023-07-29T11:28:10;99765.30;;;21.26;47.55
73518;BME280;61766;60.318;25.044;2023-07-29T11:30:38;99778.42;;;21.59;46.81
73518;BME280;61766;60.318;25.044;2023-07-29T11:33:02;99781.53;;;20.61;45.43
73518;BME280;61766;60.318;25.044;2023-07-29T11:35:28;99758.43;;;20.29;44.52
73518;BME280;61766;60.318;25.044;2023-07-29T11:37:54;99767.39;;;19.31;46.23
73518;BME280;61766;60.318;25.044;2023-07-29T11:40:20;99749.77;;;18.72;49.84
73518;BME280;61766;60.318;25.044;2023-07-29T11:42:45;99757.17;;;19.19;49.03
73518;BME280;61766;60.318;25.044;2023-07-29T11:45:11;99759.92;;;19.47;50.59
73518;BME280;61766;60.318;25.044;2023-07-29T11:47:37;99755.68;;;19.67;50.75
73518;BME280;61766;60.318;25.044;2023-07-29T11:50:02;99760.59;;;20.06;48.41
73518;BME280;61766;60.318;25.044;2023-07-29T11:52:28;99761.34;;;20.54;48.41
73518;BME280;61766;60.318;25.044;2023-07-29T11:54:54;99762.84;;;20.74;47.45
73518;BME280;61766;60.318;25.044;2023-07-29T11:57:20;99767.64;;;20.49;47.55
73518;BME280;61766;60.318;25.044;2023-07-29T11:59:45;99765.32;;;20.82;46.11
73518;BME280;61766;60.318;25.044;2023-07-29T12:02:13;99770.34;;;20.83;46.71
73518;BME280;61766;60.318;25.044;2023-07-29T12:04:37;99773.23;;;20.44;46.89
73518;BME280;61766;60.318;25.044;2023-07-29T12:07:03;99780.09;;;20.71;46.47
73518;BME280;61766;60.318;25.044;2023-07-29T12:09:28;99780.08;;;20.25;47.87
73518;BME280;61766;60.318;25.044;2023-07-29T12:11:54;99774.03;;;20.36;47.17
73518;BME280;61766;60.318;25.044;2023-07-29T12:14:20;99775.71;;;19.71;48.80
73518;BME280;61766;60.318;25.044;2023-07-29T12:16:47;99771.54;;;20.14;48.30
73518;BME280;61766;60.318;25.044;2023-07-29T12:19:11;99767.56;;;19.85;49.34
73518;BME280;61766;60.318;25.044;2023-07-29T12:21:37;99765.75;;;19.97;48.45
73518;BME280;61766;60.318;25.044;2023-07-29T12:24:03;99762.21;;;19.61;49.51
73518;BME280;61766;60.318;25.044;2023-07-29T12:26:30;99765.60;;;19.27;50.12
73518;BME280;61766;60.318;25.044;2023-07-29T12:28:54;99768.03;;;19.83;49.41
73518;BME280;61766;60.318;25.044;2023-07-29T12:31:20;99770.76;;;19.68;49.13
73518;BME280;61766;60.318;25.044;2023-07-29T12:33:45;99772.93;;;19.85;47.18
73518;BME280;61766;60.318;25.044;2023-07-29T12:36:11;99774.44;;;20.02;49.51
73518;BME280;61766;60.318;25.044;2023-07-29T12:38:38;99777.80;;;19.98;49.56
73518;BME280;61766;60.318;25.044;2023-07-29T12:41:03;99781.53;;;20.05;49.89
73518;BME280;61766;60.318;25.044;2023-07-29T12:43:29;99782.11;;;19.26;50.28
73518;BME280;61766;60.318;25.044;2023-07-29T12:45:54;99788.39;;;19.92;49.21
73518;BME280;61766;60.318;25.044;2023-07-29T12:48:20;99787.72;;;19.75;50.14
73518;BME280;61766;60.318;25.044;2023-07-29T12:50:45;99791.51;;;19.77;49.30